Time,TemperatureF,DewpointF,PressureIn,WindDirection,WindDirectionDegrees,WindSpeedMPH,WindSpeedGustMPH,Humidity,HourlyPrecipIn,Conditions,Clouds,dailyrainin,SoftwareType,DateUTC
2013-03-24 00:00:00,-11.0,-99.9,-100.00,WSW,250,4.0,5.0,-999,-99.99,,,-99.99,,2013-03-24 06:00:00,
2013-03-24 00:52:00,-11.0,-99.9,-100.00,WSW,250,4.0,5.0,-999,-99.99,,,-99.99,,2013-03-24 06:52:00,
2013-03-24 01:00:00,-11.0,-99.9,-100.00,WSW,250,3.0,5.0,-999,-99.99,,,-99.99,,2013-03-24 07:00:00,
2013-03-24 01:53:00,-11.0,-99.9,-100.00,WSW,250,3.0,5.0,-999,-99.99,,,-99.99,,2013-03-24 07:53:00,
2013-03-24 02:00:00,-8.0,-99.9,-100.00,SW,235,2.0,4.0,-999,-99.99,,,-99.99,,2013-03-24 08:00:00,
2013-03-24 02:53:00,-8.0,-99.9,-100.00,SW,235,2.0,4.0,-999,-99.99,,,-99.99,,2013-03-24 08:53:00,
2013-03-24 03:00:00,1.0,-99.9,-100.00,South,173,5.0,9.0,-999,-99.99,,,-99.99,,2013-03-24 09:00:00,
2013-03-24 03:53:00,1.0,-99.9,-100.00,South,173,5.0,9.0,-999,-99.99,,,-99.99,,2013-03-24 09:53:00,
2013-03-24 06:00:00,-2.0,-99.9,-100.00,WSW,244,13.0,16.0,-999,-99.99,,,-99.99,,2013-03-24 12:00:00,
2013-03-24 06:53:00,-2.0,-99.9,-100.00,WSW,244,13.0,16.0,-999,-99.99,,,-99.99,,2013-03-24 12:53:00,
2013-03-24 07:00:00,-6.0,-99.9,-100.00,WSW,240,10.0,12.0,-999,-99.99,,,-99.99,,2013-03-24 13:00:00,
2013-03-24 07:53:00,-6.0,-99.9,-100.00,WSW,240,10.0,12.0,-999,-99.99,,,-99.99,,2013-03-24 13:53:00,
2013-03-24 08:00:00,1.0,-99.9,-100.00,WSW,244,12.0,14.0,-999,-99.99,,,-99.99,,2013-03-24 14:00:00,
2013-03-24 08:53:00,1.0,-99.9,-100.00,WSW,244,12.0,14.0,-999,-99.99,,,-99.99,,2013-03-24 14:53:00,
2013-03-24 09:00:00,7.0,-99.9,-100.00,West,279,20.0,22.0,-999,-99.99,,,-99.99,,2013-03-24 15:00:00,
2013-03-24 09:53:00,7.0,-99.9,-100.00,West,279,20.0,22.0,-999,-99.99,,,-99.99,,2013-03-24 15:53:00,
2013-03-24 10:00:00,7.0,-99.9,-100.00,West,274,20.0,22.0,-999,-99.99,,,-99.99,,2013-03-24 16:00:00,
2013-03-24 10:53:00,7.0,-99.9,-100.00,West,274,20.0,22.0,-999,-99.99,,,-99.99,,2013-03-24 16:53:00,
2013-03-24 11:00:00,7.0,-99.9,-100.00,WSW,243,17.0,25.0,-999,-99.99,,,-99.99,,2013-03-24 17:00:00,
2013-03-24 11:53:00,7.0,-99.9,-100.00,WSW,243,17.0,25.0,-999,-99.99,,,-99.99,,2013-03-24 17:53:00,
2013-03-24 12:00:00,9.0,-99.9,-100.00,West,275,16.0,29.0,-999,-99.99,,,-99.99,,2013-03-24 18:00:00,
2013-03-24 12:53:00,9.0,-99.9,-100.00,West,275,16.0,29.0,-999,-99.99,,,-99.99,,2013-03-24 18:53:00,
2013-03-24 13:00:00,10.0,-99.9,-100.00,WNW,289,21.0,27.0,-999,-99.99,,,-99.99,,2013-03-24 19:00:00,
2013-03-24 13:53:00,10.0,-99.9,-100.00,WNW,289,21.0,27.0,-999,-99.99,,,-99.99,,2013-03-24 19:53:00,
2013-03-24 14:00:00,10.0,-99.9,-100.00,West,272,25.0,32.0,-999,-99.99,,,-99.99,,2013-03-24 20:00:00,
2013-03-24 14:53:00,10.0,-99.9,-100.00,West,272,25.0,32.0,-999,-99.99,,,-99.99,,2013-03-24 20:53:00,
2013-03-24 15:00:00,10.0,-99.9,-100.00,West,273,32.0,36.0,-999,-99.99,,,-99.99,,2013-03-24 21:00:00,
2013-03-24 15:53:00,10.0,-99.9,-100.00,West,273,32.0,36.0,-999,-99.99,,,-99.99,,2013-03-24 21:53:00,
2013-03-24 16:00:00,9.0,-99.9,-100.00,West,273,22.0,34.0,-999,-99.99,,,-99.99,,2013-03-24 22:00:00,
2013-03-24 16:53:00,9.0,-99.9,-100.00,West,273,22.0,34.0,-999,-99.99,,,-99.99,,2013-03-24 22:53:00,
2013-03-24 17:00:00,9.0,-99.9,-100.00,West,278,23.0,29.0,-999,-99.99,,,-99.99,,2013-03-24 23:00:00,
2013-03-24 17:53:00,9.0,-99.9,-100.00,West,278,23.0,29.0,-999,-99.99,,,-99.99,,2013-03-24 23:53:00,
2013-03-24 18:00:00,9.0,-99.9,-100.00,WNW,297,23.0,29.0,-999,-99.99,,,-99.99,,2013-03-25 00:00:00,
2013-03-24 18:53:00,9.0,-99.9,-100.00,WNW,297,23.0,29.0,-999,-99.99,,,-99.99,,2013-03-25 00:53:00,
2013-03-24 19:00:00,7.0,-99.9,-100.00,West,280,25.0,30.0,-999,-99.99,,,-99.99,,2013-03-25 01:00:00,
2013-03-24 19:53:00,7.0,-99.9,-100.00,West,280,25.0,30.0,-999,-99.99,,,-99.99,,2013-03-25 01:53:00,
2013-03-24 20:00:00,5.0,-99.9,-100.00,West,278,22.0,32.0,-999,-99.99,,,-99.99,,2013-03-25 02:00:00,
2013-03-24 20:53:00,5.0,-99.9,-100.00,West,278,22.0,32.0,-999,-99.99,,,-99.99,,2013-03-25 02:53:00,
2013-03-24 21:00:00,5.0,-99.9,-100.00,West,274,19.0,24.0,-999,-99.99,,,-99.99,,2013-03-25 03:00:00,
2013-03-24 21:53:00,5.0,-99.9,-100.00,West,274,19.0,24.0,-999,-99.99,,,-99.99,,2013-03-25 03:53:00,
2013-03-24 22:00:00,5.0,-99.9,-100.00,West,277,17.0,19.0,-999,-99.99,,,-99.99,,2013-03-25 04:00:00,
2013-03-24 22:53:00,5.0,-99.9,-100.00,West,277,17.0,19.0,-999,-99.99,,,-99.99,,2013-03-25 04:53:00,
2013-03-24 23:00:00,5.0,-99.9,-100.00,West,272,14.0,17.0,-999,-99.99,,,-99.99,,2013-03-25 05:00:00,
2013-03-24 23:53:00,5.0,-99.9,-100.00,West,272,14.0,17.0,-999,-99.99,,,-99.99,,2013-03-25 05:53:00,